createdAt,value
2023-05-23T00:02:28.923Z,96446.16
2023-05-23T00:04:58.501Z,96448.81
2023-05-23T00:07:28.124Z,96441.06
2023-05-23T00:09:56.267Z,96451.22
2023-05-23T00:12:24.447Z,96444.00
2023-05-23T00:14:53.612Z,96451.47
2023-05-23T00:17:25.415Z,96446.13
2023-05-23T00:19:56.121Z,96457.81
2023-05-23T00:22:24.441Z,96452.50
2023-05-23T00:24:53.960Z,96453.06
2023-05-23T00:27:22.051Z,96457.31
2023-05-23T00:29:50.399Z,96453.00
2023-05-23T00:32:18.489Z,96456.47
2023-05-23T00:34:46.884Z,96453.81
2023-05-23T00:37:15.146Z,96449.81
2023-05-23T00:39:43.318Z,96448.44
2023-05-23T00:42:12.880Z,96454.06
2023-05-23T00:44:41.081Z,96456.72
2023-05-23T00:47:09.691Z,96465.75
2023-05-23T00:49:38.087Z,96461.50
2023-05-23T00:52:07.680Z,96468.69
2023-05-23T00:54:37.481Z,96466.31
2023-05-23T00:57:06.694Z,96467.34
2023-05-23T00:59:38.976Z,96468.41
2023-05-23T01:02:08.386Z,96471.06
2023-05-23T01:04:37.473Z,96476.91
2023-05-23T01:07:06.427Z,96468.66
2023-05-23T01:09:34.852Z,96473.44
2023-05-23T01:12:18.237Z,96466.50
2023-05-23T01:14:58.021Z,96471.84
2023-05-23T01:17:43.764Z,96477.16
2023-05-23T01:20:15.877Z,96471.56
2023-05-23T01:23:15.498Z,96474.75
2023-05-23T01:26:14.742Z,96472.59
2023-05-23T01:28:48.758Z,96473.16
2023-05-23T01:31:18.586Z,96477.13
2023-05-23T01:33:50.165Z,96468.84
2023-05-23T01:36:18.382Z,96476.31
2023-05-23T01:38:46.584Z,96480.06
2023-05-23T01:41:14.752Z,96469.16
2023-05-23T01:43:44.295Z,96469.44
2023-05-23T01:46:13.051Z,96478.22
2023-05-23T01:48:42.321Z,96478.50
2023-05-23T01:51:10.610Z,96480.09
2023-05-23T01:53:39.189Z,96480.91
2023-05-23T01:56:07.550Z,96477.97
2023-05-23T01:58:35.980Z,96479.81
2023-05-23T02:01:07.429Z,96481.97
2023-05-23T02:03:37.110Z,96476.91
2023-05-23T02:06:06.834Z,96478.00
2023-05-23T02:08:36.025Z,96470.81
2023-05-23T02:11:04.338Z,96468.94
2023-05-23T02:13:32.536Z,96466.25
2023-05-23T02:16:00.913Z,96466.00
2023-05-23T02:18:31.562Z,96468.16
2023-05-23T02:20:59.940Z,96478.00
2023-05-23T02:23:27.996Z,96467.34
2023-05-23T02:25:56.148Z,96468.16
2023-05-23T02:28:24.365Z,96473.75
2023-05-23T02:30:52.571Z,96463.84
2023-05-23T02:33:20.719Z,96465.47
2023-05-23T02:35:51.551Z,96468.94
2023-05-23T02:38:20.680Z,96474.50
2023-05-23T02:40:50.457Z,96475.06
2023-05-23T02:43:18.999Z,96478.50
2023-05-23T02:45:47.377Z,96475.06
2023-05-23T02:48:17.458Z,96483.56
2023-05-23T02:50:46.385Z,96478.56
2023-05-23T02:53:16.252Z,96478.00
2023-05-23T02:55:44.588Z,96483.31
2023-05-23T02:58:12.965Z,96487.59
2023-05-23T03:00:43.704Z,96489.22
2023-05-23T03:03:12.090Z,96491.03
2023-05-23T03:05:40.722Z,96493.16
2023-05-23T03:08:09.052Z,96496.66
2023-05-23T03:10:38.592Z,96489.72
2023-05-23T03:13:06.839Z,96493.72
2023-05-23T03:15:36.542Z,96487.59
2023-05-23T03:18:05.136Z,96483.88
2023-05-23T03:20:33.424Z,96491.88
2023-05-23T03:23:01.797Z,96496.91
2023-05-23T03:25:29.997Z,96493.47
2023-05-23T03:27:59.752Z,96503.31
2023-05-23T03:30:28.148Z,96500.94
2023-05-23T03:32:56.428Z,96495.81
2023-05-23T03:35:24.653Z,96501.47
2023-05-23T03:37:52.856Z,96503.06
2023-05-23T03:40:22.110Z,96500.91
2023-05-23T03:43:02.598Z,96504.91
2023-05-23T03:45:32.380Z,96503.56
2023-05-23T03:48:02.829Z,96504.38
2023-05-23T03:50:31.703Z,96509.16
2023-05-23T03:53:00.367Z,96508.38
2023-05-23T03:55:34.432Z,96504.38
2023-05-23T03:58:04.105Z,96514.75
2023-05-23T04:00:33.764Z,96519.31
2023-05-23T04:03:04.902Z,96516.63
2023-05-23T04:05:33.810Z,96513.69
2023-05-23T04:08:02.343Z,96516.59
2023-05-23T04:10:31.272Z,96515.03
2023-05-23T04:13:00.334Z,96511.03
2023-05-23T04:15:29.111Z,96512.88
2023-05-23T04:18:01.362Z,96515.28
2023-05-23T04:20:29.761Z,96514.75
2023-05-23T04:22:57.883Z,96512.88
2023-05-23T04:25:27.358Z,96516.88
2023-05-23T04:28:18.624Z,96521.63
2023-05-23T04:30:49.374Z,96517.63
2023-05-23T04:33:22.152Z,96519.78
2023-05-23T04:35:51.217Z,96518.97
2023-05-23T04:38:19.544Z,96527.81
2023-05-23T04:40:48.263Z,96524.88
2023-05-23T04:43:42.476Z,96533.09
2023-05-23T04:46:26.835Z,96534.19
2023-05-23T04:49:29.456Z,96529.09
2023-05-23T04:51:57.797Z,96540.03
2023-05-23T04:54:28.831Z,96547.25
2023-05-23T04:57:00.178Z,96543.50
2023-05-23T04:59:30.551Z,96550.94
2023-05-23T05:01:58.652Z,96548.00
2023-05-23T05:04:28.343Z,96549.88
2023-05-23T05:06:57.338Z,96549.34
2023-05-23T05:09:25.896Z,96553.09
2023-05-23T05:11:54.064Z,96553.59
2023-05-23T05:14:22.219Z,96555.78
2023-05-23T05:16:50.810Z,96555.53
2023-05-23T05:19:19.219Z,96555.50
2023-05-23T05:21:49.004Z,96557.06
2023-05-23T05:24:17.277Z,96558.66
2023-05-23T05:26:45.879Z,96565.84
2023-05-23T05:29:14.034Z,96559.44
2023-05-23T05:31:43.507Z,96566.88
2023-05-23T05:34:12.695Z,96563.16
2023-05-23T05:36:45.859Z,96562.06
2023-05-23T05:39:17.055Z,96560.50
2023-05-23T05:41:45.445Z,96562.38
2023-05-23T05:44:15.078Z,96563.66
2023-05-23T05:46:43.410Z,96563.38
2023-05-23T05:49:12.489Z,96562.06
2023-05-23T05:51:41.202Z,96567.41
2023-05-23T05:54:11.105Z,96570.63
2023-05-23T05:56:42.292Z,96571.13
2023-05-23T05:59:11.313Z,96574.84
2023-05-23T06:01:40.827Z,96567.59
2023-05-23T06:04:09.254Z,96572.66
2023-05-23T06:06:37.628Z,96576.97
2023-05-23T06:09:05.948Z,96572.94
2023-05-23T06:11:35.152Z,96574.53
2023-05-23T06:14:29.367Z,96563.88
2023-05-23T06:16:58.185Z,96571.34
2023-05-23T06:19:26.409Z,96566.81
2023-05-23T06:21:55.055Z,96572.47
2023-05-23T06:24:23.692Z,96578.84
2023-05-23T06:26:51.768Z,96578.84
2023-05-23T06:29:21.401Z,96572.75
2023-05-23T06:31:49.633Z,96574.16
2023-05-23T06:34:18.070Z,96582.41
2023-05-23T06:36:48.446Z,96592.19
2023-05-23T06:39:17.693Z,96595.63
2023-05-23T06:41:46.024Z,96594.34
2023-05-23T06:44:14.860Z,96597.03
2023-05-23T06:46:47.606Z,96602.63
2023-05-23T06:49:16.795Z,96611.34
2023-05-23T06:51:46.462Z,96617.16
2023-05-23T06:54:14.994Z,96610.25
2023-05-23T06:56:43.335Z,96611.84
2023-05-23T06:59:11.832Z,96620.78
2023-05-23T07:01:40.911Z,96623.53
2023-05-23T07:04:12.096Z,96630.19
2023-05-23T07:06:40.612Z,96634.38
2023-05-23T07:09:11.843Z,96634.44
2023-05-23T07:11:41.294Z,96642.16
2023-05-23T07:14:10.671Z,96645.31
2023-05-23T07:16:42.849Z,96651.44
2023-05-23T07:19:12.442Z,96646.91
2023-05-23T07:21:47.309Z,96651.63
2023-05-23T07:24:18.234Z,96652.47
2023-05-23T07:26:46.506Z,96655.25
2023-05-23T07:29:14.602Z,96648.94
2023-05-23T07:31:44.745Z,96644.06
2023-05-23T07:34:17.345Z,96651.91
2023-05-23T07:36:54.370Z,96653.56
2023-05-23T07:39:24.413Z,96661.81
2023-05-23T07:41:53.558Z,96650.69
2023-05-23T07:44:24.622Z,96649.97
2023-05-23T07:46:54.083Z,96649.75
2023-05-23T07:49:24.428Z,96652.81
2023-05-23T07:51:52.612Z,96655.50
2023-05-23T07:54:20.864Z,96662.19
2023-05-23T07:56:53.924Z,96656.91
2023-05-23T07:59:22.675Z,96661.38
2023-05-23T08:01:52.632Z,96662.50
2023-05-23T08:04:24.826Z,96668.63
2023-05-23T08:07:04.063Z,96662.28
2023-05-23T08:10:08.341Z,96671.97
2023-05-23T08:12:36.574Z,96676.47
2023-05-23T08:15:13.094Z,96674.41
2023-05-23T08:17:48.749Z,96678.91
2023-05-23T08:20:19.480Z,96675.97
2023-05-23T08:22:47.798Z,96672.94
2023-05-23T08:25:16.267Z,96675.75
2023-05-23T08:27:44.624Z,96679.28
2023-05-23T08:30:33.958Z,96683.66
2023-05-23T08:33:04.865Z,96678.06
2023-05-23T08:35:36.579Z,96680.88
2023-05-23T08:38:08.942Z,96676.66
2023-05-23T08:40:43.458Z,96681.78
2023-05-23T08:43:14.618Z,96684.41
2023-05-23T08:45:43.345Z,96687.09
2023-05-23T08:48:16.075Z,96695.47
2023-05-23T08:50:50.510Z,96691.75
2023-05-23T08:53:24.171Z,96698.19
2023-05-23T08:56:02.620Z,96704.78
2023-05-23T08:58:41.856Z,96705.22
2023-05-23T09:01:11.618Z,96710.03
2023-05-23T09:03:42.394Z,96710.22
2023-05-23T09:06:22.988Z,96714.97
2023-05-23T09:08:53.566Z,96709.28
2023-05-23T09:11:24.439Z,96714.56
2023-05-23T09:13:52.645Z,96713.09
2023-05-23T09:16:22.928Z,96711.84
2023-05-23T09:18:55.953Z,96720.09
2023-05-23T09:21:28.381Z,96713.97
2023-05-23T09:24:11.313Z,96717.81
2023-05-23T09:26:40.878Z,96722.50
2023-05-23T09:29:08.992Z,96718.66
2023-05-23T09:31:37.444Z,96727.56
2023-05-23T09:34:06.929Z,96726.75
2023-05-23T09:36:37.490Z,96716.94
2023-05-23T09:39:06.539Z,96724.25
2023-05-23T09:41:36.199Z,96720.06
2023-05-23T09:44:09.331Z,96723.31
2023-05-23T09:46:39.559Z,96727.38
2023-05-23T09:49:18.930Z,96723.34
2023-05-23T09:51:59.812Z,96728.44
2023-05-23T09:54:28.206Z,96723.44
2023-05-23T09:56:57.598Z,96728.72
2023-05-23T09:59:29.480Z,96725.91
2023-05-23T10:01:58.781Z,96730.22
2023-05-23T10:04:29.416Z,96730.72
2023-05-23T10:07:07.962Z,96720.91
2023-05-23T10:09:40.710Z,96726.13
2023-05-23T10:12:45.533Z,96725.78
2023-05-23T10:15:17.761Z,96716.66
2023-05-23T10:18:07.831Z,96723.13
2023-05-23T10:20:40.678Z,96732.22
2023-05-23T10:23:11.924Z,96723.19
2023-05-23T10:25:42.119Z,96722.44
2023-05-23T10:28:10.886Z,96730.69
2023-05-23T10:30:39.920Z,96731.50
2023-05-23T10:33:09.583Z,96729.13
2023-05-23T10:35:52.258Z,96737.38
2023-05-23T10:38:36.967Z,96736.28
2023-05-23T10:41:14.686Z,96741.66
2023-05-23T10:43:50.933Z,96739.09
2023-05-23T10:46:22.575Z,96745.75
2023-05-23T10:48:57.919Z,96730.59
2023-05-23T10:51:26.766Z,96728.94
2023-05-23T10:53:56.410Z,96737.75
2023-05-23T10:56:25.995Z,96734.53
2023-05-23T10:58:55.957Z,96738.03
2023-05-23T11:01:24.942Z,96740.06
2023-05-23T11:03:56.107Z,96742.25
2023-05-23T11:06:34.065Z,96735.09
2023-05-23T11:09:10.514Z,96747.34
2023-05-23T11:12:02.964Z,96737.53
2023-05-23T11:14:54.606Z,96739.09
2023-05-23T11:17:34.548Z,96744.94
2023-05-23T11:20:10.107Z,96754.84
2023-05-23T11:22:39.885Z,96750.88
2023-05-23T11:25:11.049Z,96752.69
2023-05-23T11:27:41.644Z,96752.78
2023-05-23T11:30:13.522Z,96751.16
2023-05-23T11:32:43.260Z,96753.63
2023-05-23T11:35:12.506Z,96746.00
2023-05-23T11:37:41.126Z,96745.41
2023-05-23T11:40:32.273Z,96750.97
2023-05-23T11:43:01.997Z,96744.06
2023-05-23T11:45:32.258Z,96745.84
2023-05-23T11:48:05.791Z,96745.72
2023-05-23T11:50:34.241Z,96745.72
2023-05-23T11:53:02.919Z,96750.63
2023-05-23T11:55:32.839Z,96751.56
2023-05-23T11:58:02.567Z,96751.63
2023-05-23T12:00:31.615Z,96743.09
2023-05-23T12:03:00.212Z,96743.59
2023-05-23T12:05:30.497Z,96729.81
2023-05-23T12:08:01.526Z,96730.97
2023-05-23T12:10:30.069Z,96724.09
2023-05-23T12:12:59.939Z,96734.06
2023-05-23T12:15:28.986Z,96716.97
2023-05-23T12:17:57.939Z,96725.53
2023-05-23T12:20:28.511Z,96723.44
2023-05-23T12:22:58.657Z,96721.81
2023-05-23T12:25:26.939Z,96725.28
2023-05-23T12:27:56.305Z,96727.38
2023-05-23T12:30:26.306Z,96721.78
2023-05-23T12:32:54.906Z,96720.16
2023-05-23T12:35:27.673Z,96723.66
2023-05-23T12:37:59.051Z,96723.44
2023-05-23T12:40:27.591Z,96721.78
2023-05-23T12:42:57.616Z,96714.59
2023-05-23T12:45:35.049Z,96711.63
2023-05-23T12:48:04.233Z,96709.28
2023-05-23T12:50:32.448Z,96706.94
2023-05-23T12:53:00.879Z,96701.59
2023-05-23T12:55:32.036Z,96704.56
2023-05-23T12:58:00.191Z,96702.44
2023-05-23T13:00:29.958Z,96703.78
2023-05-23T13:02:58.407Z,96695.25
2023-05-23T13:05:28.624Z,96703.25
2023-05-23T13:07:59.421Z,96688.31
2023-05-23T13:10:31.992Z,96694.16
2023-05-23T13:13:00.569Z,96693.66
2023-05-23T13:15:30.316Z,96697.38
2023-05-23T13:18:01.010Z,96702.19
2023-05-23T13:20:30.858Z,96703.78
2023-05-23T13:23:00.226Z,96701.38
2023-05-23T13:25:29.250Z,96712.03
2023-05-23T13:27:58.099Z,96708.84
2023-05-23T13:30:27.215Z,96710.94
2023-05-23T13:32:56.808Z,96707.34
2023-05-23T13:35:25.290Z,96715.88
2023-05-23T13:37:53.725Z,96714.28
2023-05-23T13:40:23.140Z,96708.44
2023-05-23T13:42:56.635Z,96712.44
2023-05-23T13:45:25.080Z,96723.06
2023-05-23T13:47:53.427Z,96719.88
2023-05-23T13:50:23.632Z,96725.47
2023-05-23T13:52:51.816Z,96712.31
2023-05-23T13:55:19.935Z,96718.97
2023-05-23T13:57:48.418Z,96714.19
2023-05-23T14:00:17.408Z,96721.16
2023-05-23T14:02:51.162Z,96710.53
2023-05-23T14:05:20.389Z,96714.28
2023-05-23T14:07:50.238Z,96703.09
2023-05-23T14:10:19.373Z,96706.03
2023-05-23T14:12:48.812Z,96707.88
2023-05-23T14:15:21.375Z,96706.28
2023-05-23T14:17:50.128Z,96711.13
2023-05-23T14:20:18.629Z,96707.09
2023-05-23T14:22:46.866Z,96705.00
2023-05-23T14:25:21.197Z,96702.59
2023-05-23T14:27:49.330Z,96699.34
2023-05-23T14:30:17.929Z,96697.03
2023-05-23T14:32:47.442Z,96694.66
2023-05-23T14:35:15.780Z,96704.53
2023-05-23T14:37:44.060Z,96706.69
2023-05-23T14:40:17.166Z,96704.56
2023-05-23T14:42:46.632Z,96700.56
2023-05-23T14:45:18.632Z,96698.84
2023-05-23T14:47:48.159Z,96698.91
2023-05-23T14:50:17.168Z,96694.41
2023-05-23T14:52:46.050Z,96694.94
2023-05-23T14:55:15.166Z,96698.66
2023-05-23T14:57:43.374Z,96698.66
2023-05-23T15:00:14.669Z,96701.34
2023-05-23T15:02:43.081Z,96700.56
2023-05-23T15:05:11.613Z,96701.06
2023-05-23T15:07:40.450Z,96702.16
2023-05-23T15:10:09.904Z,96695.78
2023-05-23T15:12:38.298Z,96693.63
2023-05-23T15:15:07.764Z,96694.94
2023-05-23T15:17:37.421Z,96694.69
2023-05-23T15:20:07.795Z,96697.38
2023-05-23T15:22:39.849Z,96692.28
2023-05-23T15:25:10.061Z,96691.47
2023-05-23T15:27:38.382Z,96690.94
2023-05-23T15:30:08.428Z,96697.59
2023-05-23T15:32:37.932Z,96697.06
2023-05-23T15:35:08.215Z,96689.56
2023-05-23T15:37:36.349Z,96692.53
2023-05-23T15:40:06.360Z,96695.22
2023-05-23T15:42:36.951Z,96698.09
2023-05-23T15:45:06.075Z,96697.50
2023-05-23T15:47:35.270Z,96690.00
2023-05-23T15:50:05.523Z,96690.31
2023-05-23T15:52:34.236Z,96695.44
2023-05-23T15:55:05.565Z,96692.25
2023-05-23T15:57:35.360Z,96694.59
2023-05-23T16:00:04.368Z,96694.59
2023-05-23T16:02:40.058Z,96683.69
2023-05-23T16:05:11.125Z,96691.13
2023-05-23T16:07:41.257Z,96688.47
2023-05-23T16:10:10.680Z,96673.28
2023-05-23T16:12:38.789Z,96683.69
2023-05-23T16:15:08.025Z,96687.16
2023-05-23T16:17:36.248Z,96688.25
2023-05-23T16:20:04.684Z,96689.50
2023-05-23T16:22:34.670Z,96688.66
2023-05-23T16:25:02.877Z,96688.13
2023-05-23T16:27:31.059Z,96688.94
2023-05-23T16:29:59.261Z,96687.19
2023-05-23T16:32:28.879Z,96685.88
2023-05-23T16:34:58.273Z,96678.94
2023-05-23T16:37:27.497Z,96680.97
2023-05-23T16:39:57.275Z,96680.19
2023-05-23T16:42:26.195Z,96674.88
2023-05-23T16:44:54.595Z,96674.34
2023-05-23T16:47:22.852Z,96679.78
2023-05-23T16:49:51.169Z,96669.38
2023-05-23T16:52:19.532Z,96668.66
2023-05-23T16:54:47.617Z,96672.66
2023-05-23T16:57:17.159Z,96670.97
2023-05-23T16:59:46.182Z,96674.47
2023-05-23T17:02:15.918Z,96676.06
2023-05-23T17:04:44.276Z,96676.25
2023-05-23T17:07:12.344Z,96679.22
2023-05-23T17:09:40.763Z,96674.38
2023-05-23T17:12:10.282Z,96677.34
2023-05-23T17:14:39.710Z,96680.59
2023-05-23T17:17:08.212Z,96679.22
2023-05-23T17:19:43.009Z,96685.44
2023-05-23T17:22:11.656Z,96683.78
2023-05-23T17:24:39.770Z,96678.72
2023-05-23T17:27:09.671Z,96684.66
2023-05-23T17:29:40.310Z,96682.19
2023-05-23T17:32:11.253Z,96688.31
2023-05-23T17:34:39.744Z,96687.72
2023-05-23T17:37:09.101Z,96693.59
2023-05-23T17:39:37.184Z,96695.59
2023-05-23T17:42:06.086Z,96694.72
2023-05-23T17:44:34.196Z,96702.06
2023-05-23T17:47:06.368Z,96702.09
2023-05-23T17:49:35.331Z,96716.16
2023-05-23T17:52:05.756Z,96711.81
2023-05-23T17:54:34.229Z,96705.50
2023-05-23T17:57:03.270Z,96712.84
2023-05-23T17:59:32.479Z,96714.28
2023-05-23T18:02:04.626Z,96717.66
2023-05-23T18:04:34.432Z,96713.91
2023-05-23T18:07:03.363Z,96718.19
2023-05-23T18:09:32.005Z,96721.66
2023-05-23T18:12:00.596Z,96729.41
2023-05-23T18:14:28.662Z,96730.09
2023-05-23T18:16:57.255Z,96726.09
2023-05-23T18:19:26.369Z,96732.47
2023-05-23T18:21:57.447Z,96734.34
2023-05-23T18:24:25.756Z,96732.91
2023-05-23T18:26:53.933Z,96735.69
2023-05-23T18:29:22.388Z,96741.78
2023-05-23T18:31:50.465Z,96737.63
2023-05-23T18:34:19.356Z,96740.31
2023-05-23T18:36:47.642Z,96736.25
2023-05-23T18:39:21.344Z,96732.84
2023-05-23T18:41:50.378Z,96745.59
2023-05-23T18:44:20.692Z,96735.44
2023-05-23T18:46:49.228Z,96736.19
2023-05-23T18:49:17.381Z,96747.38
2023-05-23T18:51:48.374Z,96753.44
2023-05-23T18:54:16.537Z,96752.88
2023-05-23T18:56:45.986Z,96755.53
2023-05-23T18:59:16.369Z,96761.56
2023-05-23T19:01:45.399Z,96758.56
2023-05-23T19:04:13.605Z,96760.59
2023-05-23T19:06:41.767Z,96770.03
2023-05-23T19:09:11.552Z,96771.34
2023-05-23T19:11:40.277Z,96782.88
2023-05-23T19:14:11.422Z,96789.91
2023-05-23T19:16:40.461Z,96791.34
2023-05-23T19:19:08.573Z,96793.50
2023-05-23T19:21:36.650Z,96793.75
2023-05-23T19:24:08.413Z,96796.47
2023-05-23T19:26:37.162Z,96807.78
2023-05-23T19:29:06.251Z,96815.63
2023-05-23T19:31:38.599Z,96806.63
2023-05-23T19:34:07.546Z,96803.97
2023-05-23T19:36:36.571Z,96814.63
2023-05-23T19:39:06.409Z,96818.81
2023-05-23T19:41:34.575Z,96816.22
2023-05-23T19:44:02.834Z,96827.84
2023-05-23T19:46:31.369Z,96830.03
2023-05-23T19:49:00.966Z,96823.31
2023-05-23T19:51:29.663Z,96831.00
2023-05-23T19:53:57.843Z,96827.22
2023-05-23T19:56:27.224Z,96840.28
2023-05-23T19:58:55.426Z,96837.63
2023-05-23T20:01:23.674Z,96834.56
2023-05-23T20:03:52.581Z,96841.50
2023-05-23T20:06:22.405Z,96835.56
2023-05-23T20:08:50.678Z,96845.91
2023-05-23T20:11:19.426Z,96854.00
2023-05-23T20:13:48.418Z,96850.03
2023-05-23T20:16:17.868Z,96853.00
2023-05-23T20:18:46.011Z,96864.22
2023-05-23T20:21:14.120Z,96854.41
2023-05-23T20:23:45.180Z,96856.53
2023-05-23T20:26:13.376Z,96859.19
2023-05-23T20:28:41.456Z,96868.81
2023-05-23T20:31:10.573Z,96861.56
2023-05-23T20:33:38.685Z,96861.31
2023-05-23T20:36:07.713Z,96862.09
2023-05-23T20:38:35.970Z,96867.13
2023-05-23T20:41:07.497Z,96871.97
2023-05-23T20:43:37.291Z,96868.41
2023-05-23T20:46:06.552Z,96869.22
2023-05-23T20:48:34.914Z,96878.81
2023-05-23T20:51:05.550Z,96880.78
2023-05-23T20:53:35.172Z,96885.66
2023-05-23T20:56:05.502Z,96885.66
2023-05-23T20:58:34.559Z,96890.63
2023-05-23T21:01:04.708Z,96889.81
2023-05-23T21:03:32.966Z,96894.72
2023-05-23T21:06:01.118Z,96894.25
2023-05-23T21:08:30.005Z,96894.03
2023-05-23T21:10:59.349Z,96903.53
2023-05-23T21:13:28.800Z,96900.88
2023-05-23T21:16:00.893Z,96896.56
2023-05-23T21:18:29.034Z,96906.06
2023-05-23T21:20:57.175Z,96907.38
2023-05-23T21:23:25.286Z,96912.59
2023-05-23T21:25:54.521Z,96917.09
2023-05-23T21:28:22.829Z,96915.97
2023-05-23T21:30:52.680Z,96907.53
2023-05-23T21:33:21.081Z,96907.75
2023-05-23T21:35:49.495Z,96897.47
2023-05-23T21:38:17.730Z,96911.47
2023-05-23T21:40:45.991Z,96899.94
2023-05-23T21:43:14.017Z,96895.44
2023-05-23T21:45:42.733Z,96894.97
2023-05-23T21:48:12.520Z,96893.03
2023-05-23T21:50:40.823Z,96891.31
2023-05-23T21:53:09.021Z,96898.50
2023-05-23T21:55:37.121Z,96893.47
2023-05-23T21:58:05.256Z,96890.91
2023-05-23T22:00:33.450Z,96892.69
2023-05-23T22:03:01.828Z,96895.25
2023-05-23T22:05:31.472Z,96901.03
2023-05-23T22:08:00.677Z,96901.72
2023-05-23T22:10:29.039Z,96906.38
2023-05-23T22:12:57.342Z,96913.22
2023-05-23T22:15:25.403Z,96910.22
2023-05-23T22:17:53.635Z,96912.56
2023-05-23T22:20:23.211Z,96908.88
2023-05-23T22:22:52.725Z,96909.34
2023-05-23T22:25:21.820Z,96907.69
2023-05-23T22:27:49.951Z,96907.69
2023-05-23T22:30:18.726Z,96910.50
2023-05-23T22:32:46.919Z,96906.25
2023-05-23T22:35:15.123Z,96911.09
2023-05-23T22:37:43.260Z,96910.16
2023-05-23T22:40:13.073Z,96915.84
2023-05-23T22:42:41.262Z,96917.81
2023-05-23T22:45:10.781Z,96922.78
2023-05-23T22:47:40.476Z,96921.06
2023-05-23T22:50:10.413Z,96931.31
2023-05-23T22:52:38.565Z,96920.13
2023-05-23T22:55:10.153Z,96919.66
2023-05-23T22:57:39.562Z,96911.34
2023-05-23T23:00:13.511Z,96918.28
2023-05-23T23:02:44.175Z,96908.72
2023-05-23T23:05:12.815Z,96916.44
2023-05-23T23:07:41.038Z,96913.47
2023-05-23T23:10:10.898Z,96911.81
2023-05-23T23:12:40.720Z,96917.25
2023-05-23T23:15:10.133Z,96917.81
2023-05-23T23:17:39.396Z,96918.19
2023-05-23T23:20:10.312Z,96913.91
2023-05-23T23:22:38.952Z,96907.31
2023-05-23T23:25:10.390Z,96909.06
2023-05-23T23:27:39.964Z,96904.81
2023-05-23T23:30:10.246Z,96893.97
2023-05-23T23:32:38.512Z,96898.69
2023-05-23T23:35:07.556Z,96905.41
2023-05-23T23:37:35.847Z,96909.31
2023-05-23T23:40:04.926Z,96896.28
2023-05-23T23:42:33.024Z,96905.63
2023-05-23T23:45:02.503Z,96896.41
2023-05-23T23:47:32.282Z,96904.50
2023-05-23T23:50:00.665Z,96902.63
2023-05-23T23:52:30.067Z,96899.41
2023-05-23T23:54:58.150Z,96891.47
2023-05-23T23:57:26.306Z,96901.03
2023-05-23T23:59:54.413Z,96895.13
